Woburn, Canada
Current Conditions -  °F | °C
As of 9:00 AM on Monday 22 Dec 2014 (Local Time) from CYSC Reporting Station
Overcast Overcast  
Wind Chill: 21°   Ceiling: 2400
Heat Index: 21°   Visibility: 9mi
Dew Point: 19°   Wind: 2mph
Humidity: 93%   Direction: NA
Pressure: 30.38"   Gusts: NA
Location:  45.38°N, 70.87°W
Report Text: CYSC 221400Z AUTO VRB02KT 9SM OVC024 M06/M07 A3038 RMK SLP304
Loading
Personal Weather Stations






























Interactive Weather Map New forecast layout! Learn more

10-Day Weather Forecast

Advertisements
Track Severe Weather on mobile